Time;durP1;ratioP1;P1;durP2;ratioP2;P2;SDS_P1;SDS_P2;PMS_P1;PMS_P2;Temp;Humidity;BMP_temperature;BMP_pressure;BME280_temperature;BME280_humidity;BME280_pressure;Samples;Min_cycle;Max_cycle;Signal;HPM_P1;HPM_P2
2021/07/30 00:00:26;;;;;;;16.48;4.80;;;;;;;14.49;73.90;101115.38;6246915;23;20027;-80
2021/07/30 00:02:51;;;;;;;14.82;5.60;;;;;;;14.43;74.59;101104.78;6219766;23;20427;-78
2021/07/30 00:05:17;;;;;;;13.65;5.53;;;;;;;14.37;75.12;101114.44;6247032;23;20036;-81
2021/07/30 00:08:02;;;;;;;13.15;5.20;;;;;;;14.31;75.03;101112.63;6247164;23;20010;-78
2021/07/30 00:10:28;;;;;;;15.52;5.60;;;;;;;14.27;75.55;101113.47;6246743;23;20364;-80
2021/07/30 00:12:56;;;;;;;18.00;5.75;;;;;;;14.27;75.29;101113.47;6247417;23;20019;-79
2021/07/30 00:15:25;;;;;;;14.55;5.13;;;;;;;14.26;75.34;101107.31;6247650;23;20004;-80
2021/07/30 00:17:51;;;;;;;13.10;5.38;;;;;;;14.20;75.70;101111.69;6247076;23;20012;-82
2021/07/30 00:20:16;;;;;;;13.05;5.10;;;;;;;14.21;75.52;101118.75;6247142;23;20015;-80
2021/07/30 00:22:42;;;;;;;15.80;5.65;;;;;;;14.21;75.62;101105.53;6247106;23;20007;-78
2021/07/30 00:25:27;;;;;;;12.40;5.32;;;;;;;14.22;75.12;101108.16;6246479;23;20031;-81
2021/07/30 00:27:53;;;;;;;12.93;4.43;;;;;;;14.18;75.07;101103.75;6246446;23;20036;-79
2021/07/30 00:30:18;;;;;;;18.80;5.75;;;;;;;14.23;75.04;101101.09;6246697;23;20343;-77
2021/07/30 00:32:44;;;;;;;12.23;4.35;;;;;;;14.20;75.18;101101.09;6246376;23;20008;-79
2021/07/30 00:35:09;;;;;;;11.90;4.72;;;;;;;14.21;75.88;101102.88;6246195;23;20327;-78
2021/07/30 00:37:38;;;;;;;16.38;5.25;;;;;;;14.18;75.51;101098.44;6246624;23;20461;-83
2021/07/30 00:40:04;;;;;;;13.30;4.85;;;;;;;14.16;75.52;101102.81;6247091;23;20343;-81
2021/07/30 00:42:31;;;;;;;13.85;5.00;;;;;;;14.15;75.81;101103.72;6246698;23;20074;-78
2021/07/30 00:44:58;;;;;;;12.60;5.35;;;;;;;14.14;75.56;101097.53;6246292;23;20072;-81
2021/07/30 00:47:25;;;;;;;9.18;4.38;;;;;;;14.14;75.92;101107.25;6246578;23;20008;-79
2021/07/30 00:49:51;;;;;;;11.95;4.60;;;;;;;14.12;75.97;101109.88;6246579;23;20004;-81
2021/07/30 00:52:17;;;;;;;15.45;4.70;;;;;;;14.11;75.82;101096.66;6246683;23;20027;-80
2021/07/30 00:54:42;;;;;;;19.55;5.20;;;;;;;14.09;76.24;101099.25;6246202;23;20004;-81
2021/07/30 00:57:08;;;;;;;12.02;4.97;;;;;;;14.07;76.96;101103.66;6246343;23;20334;-80
2021/07/30 00:59:34;;;;;;;10.05;4.85;;;;;;;14.03;77.35;101098.38;6246792;23;20066;-80
2021/07/30 01:02:00;;;;;;;13.07;5.00;;;;;;;13.99;76.91;101095.69;6247098;23;20023;-82
2021/07/30 01:04:45;;;;;;;10.88;4.80;;;;;;;13.94;77.22;101092.09;6246359;23;20035;-79
2021/07/30 01:07:11;;;;;;;12.60;4.80;;;;;;;13.90;77.51;101097.38;6246184;23;20016;-82
2021/07/30 01:09:36;;;;;;;13.77;4.82;;;;;;;13.86;78.03;101095.59;6245918;23;20083;-79
2021/07/30 01:12:02;;;;;;;12.95;5.03;;;;;;;13.82;77.83;101092.94;6219509;23;20004;-79
2021/07/30 01:14:28;;;;;;;16.13;5.40;;;;;;;13.79;77.98;101090.25;6246001;23;20022;-81
2021/07/30 01:16:54;;;;;;;12.57;5.28;;;;;;;13.80;78.05;101101.72;6245946;23;20000;-80
2021/07/30 01:19:39;;;;;;;16.65;5.50;;;;;;;13.74;78.86;101099.94;6246205;23;20340;-85
2021/07/30 01:22:27;;;;;;;12.45;4.78;;;;;;;13.69;78.98;101091.06;6245462;23;20000;-82
2021/07/30 01:25:13;;;;;;;10.30;4.55;;;;;;;13.65;79.35;101103.38;6244338;23;20079;-81
2021/07/30 01:27:38;;;;;;;9.43;4.82;;;;;;;13.64;78.92;101087.50;6218684;23;20016;-81
2021/07/30 01:30:04;;;;;;;16.30;4.82;;;;;;;13.64;78.90;101098.94;6246269;23;20416;-78
2021/07/30 01:32:29;;;;;;;12.65;4.65;;;;;;;13.65;78.99;101097.22;6245923;23;20004;-80
2021/07/30 01:34:55;;;;;;;9.90;4.82;;;;;;;13.60;79.13;101089.22;6246977;23;20416;-81
2021/07/30 01:37:25;;;;;;;15.98;4.80;;;;;;;13.58;79.37;101084.78;6246284;23;20004;-81
2021/07/30 01:39:51;;;;;;;12.35;4.85;;;;;;;13.55;79.63;101090.06;6246094;23;20019;-83
2021/07/30 01:42:16;;;;;;;12.32;4.75;;;;;;;13.49;80.13;101086.47;6245844;23;20080;-83
2021/07/30 01:44:41;;;;;;;16.02;5.20;;;;;;;13.49;79.90;101096.19;6246184;23;20012;-81
2021/07/30 01:47:09;;;;;;;9.93;4.65;;;;;;;13.49;79.71;101086.47;6246164;23;20032;-78
2021/07/30 01:49:35;;;;;;;15.07;5.10;;;;;;;13.48;81.31;101097.97;6245590;23;20370;-82
2021/07/30 01:52:20;;;;;;;13.35;5.00;;;;;;;13.48;81.02;101095.31;6246020;23;20084;-80
2021/07/30 01:55:06;;;;;;;11.30;5.13;;;;;;;13.49;80.51;101086.47;6246337;23;20015;-82
2021/07/30 01:57:31;;;;;;;12.35;5.00;;;;;;;13.49;80.96;101094.41;6246700;23;20442;-80
2021/07/30 01:59:58;;;;;;;15.40;5.47;;;;;;;13.48;81.64;101090.03;6246324;23;20071;-81
2021/07/30 02:02:23;;;;;;;14.07;4.55;;;;;;;13.49;81.69;101086.47;6246103;23;20004;-80
2021/07/30 02:04:49;;;;;;;11.95;4.60;;;;;;;13.54;81.05;101083.00;6246749;23;20395;-82
2021/07/30 02:07:18;;;;;;;15.80;5.30;;;;;;;13.56;81.13;101086.56;6247100;23;20011;-80
2021/07/30 02:09:44;;;;;;;13.80;4.72;;;;;;;13.57;80.93;101088.31;6247055;23;20311;-78
2021/07/30 02:12:09;;;;;;;14.63;4.75;;;;;;;13.59;80.87;101087.47;6245700;23;19993;-83
2021/07/30 02:14:35;;;;;;;15.35;4.78;;;;;;;13.58;81.30;101080.41;6245657;23;20138;-82
2021/07/30 02:17:00;;;;;;;20.00;5.63;;;;;;;13.59;81.02;101078.63;6246485;23;20034;-81
2021/07/30 02:19:46;;;;;;;12.93;5.07;;;;;;;13.57;81.35;101078.63;6246500;23;20004;-77
2021/07/30 02:22:11;;;;;;;12.82;5.07;;;;;;;13.55;81.36;101072.47;6246302;23;20004;-80
2021/07/30 02:24:37;;;;;;;13.68;4.40;;;;;;;13.50;81.29;101066.25;6245536;23;20004;-85
2021/07/30 02:27:02;;;;;;;13.30;4.75;;;;;;;13.48;81.97;101073.25;6245903;23;20015;-83
2021/07/30 02:29:28;;;;;;;16.60;4.90;;;;;;;13.48;81.55;101068.88;6246038;23;20004;-78
2021/07/30 02:31:53;;;;;;;17.20;5.28;;;;;;;13.49;81.58;101067.97;6247857;23;20000;-78
2021/07/30 02:34:19;;;;;;;17.67;5.03;;;;;;;13.48;81.65;101065.31;6248573;23;20304;-80
2021/07/30 02:36:44;;;;;;;13.35;4.88;;;;;;;13.45;81.96;101063.53;6248053;23;20106;-81
2021/07/30 02:39:10;;;;;;;13.23;5.03;;;;;;;13.38;82.39;101056.44;6247692;23;20079;-82
2021/07/30 02:41:37;;;;;;;15.88;6.03;;;;;;;13.35;82.19;101061.69;6247600;23;20400;-79
2021/07/30 02:44:23;;;;;;;9.73;4.65;;;;;;;13.33;82.78;101064.31;6247628;23;20003;-80
2021/07/30 02:46:48;;;;;;;17.70;5.80;;;;;;;13.30;82.73;101066.03;6246262;23;20031;-83
2021/07/30 02:49:14;;;;;;;13.20;5.45;;;;;;;13.30;83.01;101058.09;6247684;23;20114;-81
2021/07/30 02:51:39;;;;;;;15.00;5.35;;;;;;;13.29;82.65;101061.63;6247308;23;20415;-83
2021/07/30 02:54:04;;;;;;;15.93;6.28;;;;;;;13.30;82.95;101053.69;6247528;23;20485;-79
2021/07/30 02:56:30;;;;;;;19.08;5.88;;;;;;;13.31;82.91;101054.59;6247695;23;20014;-82
2021/07/30 02:58:55;;;;;;;26.65;6.18;;;;;;;13.29;82.89;101054.59;6247394;23;20010;-80
2021/07/30 03:01:21;;;;;;;15.23;6.05;;;;;;;13.27;82.98;101064.25;6221115;23;20309;-77
2021/07/30 03:03:46;;;;;;;15.40;5.53;;;;;;;13.27;82.65;101050.16;6247207;23;20008;-84
2021/07/30 03:06:11;;;;;;;14.48;5.43;;;;;;;13.25;82.95;101043.97;6247672;23;20004;-82
2021/07/30 03:08:37;;;;;;;17.02;5.72;;;;;;;13.24;82.94;101039.53;6247731;23;20305;-82
2021/07/30 03:11:02;;;;;;;13.73;6.10;;;;;;;13.19;83.32;101036.88;6246994;23;20008;-83
2021/07/30 03:13:28;;;;;;;19.98;5.65;;;;;;;13.21;83.43;101044.81;6247949;23;20012;-84
2021/07/30 03:15:55;;;;;;;15.25;6.07;;;;;;;13.21;83.35;101044.81;6247717;23;20408;-80
2021/07/30 03:18:21;;;;;;;11.10;5.43;;;;;;;13.22;83.44;101043.94;6248042;23;20016;-84
2021/07/30 03:20:47;;;;;;;20.65;5.38;;;;;;;13.22;83.37;101038.66;6246603;23;20107;-81
2021/07/30 03:23:12;;;;;;;14.30;5.97;;;;;;;13.21;83.72;101031.59;6247701;23;20031;-80
2021/07/30 03:25:37;;;;;;;16.52;6.22;;;;;;;13.19;83.80;101039.50;6247086;23;20008;-76
2021/07/30 03:28:03;;;;;;;14.27;5.53;;;;;;;13.23;83.79;101043.06;6247538;23;20012;-81
2021/07/30 03:30:29;;;;;;;17.30;5.32;;;;;;;13.28;83.49;101033.41;6246756;23;20028;-79
2021/07/30 03:32:54;;;;;;;17.63;5.68;;;;;;;13.30;83.78;101027.25;6247052;23;20424;-82
2021/07/30 03:35:20;;;;;;;9.95;4.97;;;;;;;13.30;83.88;101023.75;6247361;23;20012;-83
2021/07/30 03:37:46;;;;;;;19.85;5.18;;;;;;;13.33;83.24;101024.66;6247303;23;20034;-84
2021/07/30 03:40:12;;;;;;;14.60;4.95;;;;;;;13.36;83.34;101023.84;6246397;23;20058;-84
2021/07/30 03:42:57;;;;;;;15.63;5.25;;;;;;;13.39;83.39;101029.16;6247040;23;20000;-81
2021/07/30 03:45:23;;;;;;;15.15;5.30;;;;;;;13.40;83.34;101030.94;6247319;23;20371;-81
2021/07/30 03:47:48;;;;;;;20.60;6.35;;;;;;;13.41;83.23;101030.03;6247089;23;20004;-81
2021/07/30 03:50:14;;;;;;;24.42;5.93;;;;;;;13.45;83.29;101034.47;6247081;23;20004;-80
2021/07/30 03:52:40;;;;;;;21.52;6.25;;;;;;;13.46;83.33;101036.25;6247377;23;20000;-80
2021/07/30 03:55:25;;;;;;;16.63;5.47;;;;;;;13.52;83.59;101039.81;6247411;23;20331;-80
2021/07/30 03:57:51;;;;;;;13.55;5.13;;;;;;;13.57;82.92;101027.50;6246755;23;20087;-81
2021/07/30 04:00:16;;;;;;;13.70;5.22;;;;;;;13.62;83.31;101034.59;6246944;23;20027;-84
2021/07/30 04:02:42;;;;;;;21.58;6.65;;;;;;;13.68;83.29;101036.41;6246540;23;20080;-80
2021/07/30 04:05:08;;;;;;;22.23;6.60;;;;;;;13.74;82.96;101035.53;6246794;23;20007;-80
2021/07/30 04:07:33;;;;;;;11.90;5.20;;;;;;;13.76;83.15;101026.75;6246261;23;20009;-83
2021/07/30 04:10:02;;;;;;;12.93;5.60;;;;;;;13.80;83.01;101025.91;6246245;23;20014;-83
2021/07/30 04:12:27;;;;;;;12.18;5.07;;;;;;;13.85;82.85;101023.31;6246704;23;20489;-83
2021/07/30 04:14:53;;;;;;;14.52;5.43;;;;;;;13.90;82.46;101018.03;6246834;23;20000;-80
2021/07/30 04:17:18;;;;;;;13.43;5.60;;;;;;;13.95;82.71;101016.28;6246719;23;20009;-82
2021/07/30 04:19:44;;;;;;;16.75;6.28;;;;;;;13.98;82.38;101005.72;6247188;23;20000;-80
2021/07/30 04:22:30;;;;;;;18.25;5.85;;;;;;;14.03;82.08;101000.47;6245973;23;20007;-83
2021/07/30 04:24:55;;;;;;;13.02;5.45;;;;;;;14.08;82.37;100993.41;6222773;23;20085;-78
2021/07/30 04:27:20;;;;;;;16.42;5.57;;;;;;;14.13;82.22;101000.53;6247233;23;20016;-81
2021/07/30 04:29:46;;;;;;;16.33;5.88;;;;;;;14.17;82.23;101006.69;6247784;23;20390;-86
2021/07/30 04:32:12;;;;;;;22.50;6.32;;;;;;;14.22;82.61;101001.44;6246571;23;20011;-83
2021/07/30 04:34:38;;;;;;;14.13;5.70;;;;;;;14.24;82.20;100999.66;6247391;23;20019;-83
2021/07/30 04:37:24;;;;;;;16.27;6.18;;;;;;;14.27;82.63;101000.56;6247693;23;20050;-82
2021/07/30 04:39:49;;;;;;;11.73;5.75;;;;;;;14.31;82.42;100998.78;6246911;23;20011;-83
2021/07/30 04:42:15;;;;;;;16.20;6.13;;;;;;;14.33;82.68;101003.22;6246216;23;20004;-81
2021/07/30 04:44:40;;;;;;;9.55;5.65;;;;;;;14.34;82.16;100996.19;6246920;23;20320;-78
2021/07/30 04:47:06;;;;;;;14.77;5.93;;;;;;;14.40;81.80;100988.25;6247200;23;20092;-82
2021/07/30 04:49:31;;;;;;;15.77;5.80;;;;;;;14.41;81.76;100978.56;6246610;23;20429;-76
2021/07/30 04:51:56;;;;;;;15.40;6.22;;;;;;;14.43;81.95;100984.72;6245474;23;20004;-82
2021/07/30 04:54:22;;;;;;;15.82;6.10;;;;;;;14.45;81.68;100978.56;6246276;23;20137;-81
2021/07/30 04:56:47;;;;;;;16.13;6.13;;;;;;;14.48;81.64;100983.84;6247057;23;20020;-79
2021/07/30 04:59:13;;;;;;;13.30;6.53;;;;;;;14.50;81.95;100973.25;6247105;23;20031;-84
2021/07/30 05:01:58;;;;;;;13.73;5.90;;;;;;;14.57;81.14;100975.06;6247173;23;20326;-84
2021/07/30 05:04:43;;;;;;;16.85;6.25;;;;;;;14.62;81.24;100977.69;6246508;23;20427;-84
2021/07/30 05:07:11;;;;;;;12.07;5.80;;;;;;;14.66;80.76;100976.84;6244139;23;20043;-83
2021/07/30 05:09:37;;;;;;;13.52;5.90;;;;;;;14.67;80.39;100974.22;6246842;23;20317;-81
2021/07/30 05:12:22;;;;;;;17.50;6.78;;;;;;;14.73;79.54;100972.47;6246596;23;20004;-84
2021/07/30 05:14:47;;;;;;;12.40;6.22;;;;;;;14.76;80.18;100978.66;6247001;23;20061;-82
2021/07/30 05:17:13;;;;;;;21.52;7.38;;;;;;;14.81;80.30;100984.84;6245654;23;20042;-81
2021/07/30 05:19:39;;;;;;;13.38;6.05;;;;;;;14.90;79.44;100972.50;6246372;23;20042;-81
2021/07/30 05:22:04;;;;;;;17.48;6.75;;;;;;;14.95;80.18;100976.91;6246057;23;20019;-82
2021/07/30 05:24:50;;;;;;;21.33;6.65;;;;;;;14.99;79.35;100968.06;6246661;23;20091;-83
2021/07/30 05:27:18;;;;;;;15.75;5.70;;;;;;;15.07;79.09;100968.09;6246222;23;20019;-80
2021/07/30 05:29:45;;;;;;;18.65;6.03;;;;;;;15.18;78.84;100968.97;6246522;23;20008;-82
2021/07/30 05:32:10;;;;;;;15.55;6.80;;;;;;;15.27;78.10;100968.06;6246687;23;20195;-79
2021/07/30 05:34:36;;;;;;;15.73;5.78;;;;;;;15.37;78.06;100955.69;6219698;23;20455;-81
2021/07/30 05:37:22;;;;;;;14.13;5.40;;;;;;;15.46;77.45;100955.69;6247364;23;20004;-81
2021/07/30 05:40:07;;;;;;;14.13;6.32;;;;;;;15.55;77.36;100956.53;6246637;23;20375;-84
2021/07/30 05:42:53;;;;;;;19.92;6.55;;;;;;;15.65;76.75;100958.28;6246679;23;20431;-80
2021/07/30 05:45:18;;;;;;;13.73;5.90;;;;;;;15.74;76.89;100965.34;6246656;23;20008;-79
2021/07/30 05:48:04;;;;;;;14.48;6.43;;;;;;;15.82;75.82;100960.94;6247010;23;20331;-77
2021/07/30 05:50:32;;;;;;;12.13;5.43;;;;;;;15.94;76.26;100955.56;6246522;23;20071;-83
2021/07/30 05:52:58;;;;;;;19.40;5.75;;;;;;;16.05;74.77;100936.03;6220194;23;20008;-82
2021/07/30 05:55:23;;;;;;;19.95;6.15;;;;;;;16.14;74.53;100936.91;6246498;23;20015;-81
2021/07/30 05:57:49;;;;;;;16.92;6.22;;;;;;;16.23;74.13;100941.28;6246192;23;20016;-82
2021/07/30 06:00:15;;;;;;;11.48;4.90;;;;;;;16.26;73.29;100937.72;6247157;23;20016;-78
2021/07/30 06:02:40;;;;;;;17.70;5.75;;;;;;;16.31;73.78;100938.59;6220180;23;20079;-80
2021/07/30 06:05:26;;;;;;;18.50;6.32;;;;;;;16.32;73.54;100940.34;6248020;23;20035;-80
2021/07/30 06:07:51;;;;;;;18.48;6.53;;;;;;;16.37;72.42;100945.63;6249008;23;20054;-81
2021/07/30 06:10:37;;;;;;;16.95;6.03;;;;;;;16.47;73.33;100940.25;6248511;23;20000;-80
2021/07/30 06:13:02;;;;;;;19.73;5.82;;;;;;;16.64;72.51;100936.59;6248796;23;20000;-81
2021/07/30 06:15:28;;;;;;;13.80;5.97;;;;;;;16.73;71.26;100931.22;6248911;23;20011;-78
2021/07/30 06:17:54;;;;;;;15.27;5.15;;;;;;;16.80;70.54;100938.25;6248864;23;20012;-81
2021/07/30 06:20:20;;;;;;;10.95;5.50;;;;;;;16.81;70.69;100933.84;6248504;23;20010;-82
2021/07/30 06:22:46;;;;;;;13.32;5.50;;;;;;;16.86;71.51;100932.91;6248856;23;20055;-86
2021/07/30 06:25:12;;;;;;;17.77;5.63;;;;;;;16.90;70.15;100927.56;6249076;23;20008;-82
2021/07/30 06:27:37;;;;;;;11.68;4.40;;;;;;;16.98;70.22;100926.63;6248014;23;20016;-79
2021/07/30 06:30:06;;;;;;;14.35;5.07;;;;;;;17.09;69.35;100913.25;6248704;23;20024;-79
2021/07/30 06:32:31;;;;;;;11.10;4.80;;;;;;;17.15;68.06;100901.66;6248540;23;20331;-84
2021/07/30 06:34:57;;;;;;;10.27;5.03;;;;;;;17.26;68.09;100910.41;6248427;23;20008;-81
2021/07/30 06:37:23;;;;;;;15.52;5.00;;;;;;;17.41;68.21;100909.38;6247723;23;20481;-81
2021/07/30 06:39:48;;;;;;;12.85;4.90;;;;;;;17.52;67.10;100907.47;6248150;23;20432;-80
2021/07/30 06:42:37;;;;;;;17.30;5.10;;;;;;;17.65;66.65;100910.00;6248601;23;19996;-82
2021/07/30 06:45:23;;;;;;;12.85;4.57;;;;;;;17.72;65.58;100903.69;6248174;23;20039;-83
2021/07/30 06:47:52;;;;;;;10.13;4.18;;;;;;;17.74;66.44;100909.88;6225458;23;20015;-81
2021/07/30 06:50:17;;;;;;;13.80;4.78;;;;;;;17.80;67.06;100904.50;6249225;23;20050;-84
2021/07/30 06:52:43;;;;;;;11.07;3.88;;;;;;;17.88;66.70;100904.41;6248848;23;20008;-85
2021/07/30 06:55:28;;;;;;;10.15;4.00;;;;;;;18.00;64.35;100898.94;6248893;23;20016;-81
2021/07/30 06:57:54;;;;;;;14.18;4.97;;;;;;;18.15;64.48;100899.63;6239859;23;20342;-79
2021/07/30 07:00:20;;;;;;;14.13;4.25;;;;;;;18.16;64.58;100894.28;6247752;23;20028;-80
2021/07/30 07:02:51;;;;;;;11.77;4.15;;;;;;;18.30;64.23;100895.84;6247914;23;20028;-81
2021/07/30 07:05:41;;;;;;;11.85;4.20;;;;;;;18.36;62.71;100885.13;6248209;23;20071;-85
2021/07/30 07:08:09;;;;;;;11.43;3.67;;;;;;;18.39;61.55;100878.88;6248126;23;20019;-81
2021/07/30 07:10:50;;;;;;;16.25;4.38;;;;;;;18.45;62.11;100878.75;6236052;23;20012;-83
2021/07/30 07:13:20;;;;;;;8.60;3.67;;;;;;;18.46;61.31;100873.44;6249006;23;20083;-86
2021/07/30 07:15:47;;;;;;;12.10;4.18;;;;;;;18.42;62.87;100876.16;6247521;23;20011;-85
2021/07/30 07:18:13;;;;;;;9.95;4.15;;;;;;;18.53;60.83;100872.41;6248348;23;20004;-84
2021/07/30 07:23:32;;;;;;;11.20;5.03;;;;;;;18.69;60.58;100877.47;6224901;23;20012;-81
2021/07/30 07:26:00;;;;;;;12.68;3.90;;;;;;;18.84;60.06;100861.25;6248499;23;20015;-84
2021/07/30 07:28:32;;;;;;;16.92;4.50;;;;;;;18.99;62.00;100865.47;6247718;23;20016;-85
2021/07/30 07:30:57;;;;;;;14.70;4.80;;;;;;;19.18;62.37;100863.34;6248369;23;20016;-84
2021/07/30 07:33:23;;;;;;;16.58;4.57;;;;;;;19.36;61.72;100854.09;6247925;23;20054;-84
2021/07/30 07:36:08;;;;;;;11.43;4.43;;;;;;;19.44;60.23;100839.69;6247560;23;20007;-85
2021/07/30 07:38:37;;;;;;;12.55;4.75;;;;;;;19.54;63.10;100851.97;6248550;23;20024;-80
2021/07/30 07:41:05;;;;;;;14.63;4.78;;;;;;;19.59;60.32;100843.84;6248436;23;19996;-84
2021/07/30 07:43:34;;;;;;;16.23;5.43;;;;;;;19.76;60.10;100841.69;6248087;23;20081;-82
2021/07/30 07:46:02;;;;;;;10.85;5.25;;;;;;;19.81;59.52;100834.50;6247854;23;20335;-86
2021/07/30 07:48:53;;;;;;;13.07;5.22;;;;;;;20.01;59.71;100831.38;6221454;23;20046;-81
2021/07/30 07:51:21;;;;;;;13.00;4.85;;;;;;;20.07;60.42;100830.38;6243156;23;20012;-80
2021/07/30 07:53:57;;;;;;;16.02;5.07;;;;;;;20.17;60.51;100826.56;6247649;23;20004;-82
2021/07/30 07:56:51;;;;;;;12.02;4.32;;;;;;;20.23;58.98;100816.66;6247644;23;20031;-80
2021/07/30 07:59:37;;;;;;;13.85;4.45;;;;;;;20.19;60.88;100826.53;6248795;23;20008;-83
2021/07/30 08:02:08;;;;;;;14.32;4.50;;;;;;;20.36;57.96;100826.13;6248005;23;20027;-81
2021/07/30 08:04:38;;;;;;;11.57;4.22;;;;;;;20.42;57.39;100819.75;6246256;23;20015;-81
2021/07/30 08:07:22;;;;;;;;;;;;;;;;;;;;;
2021/07/30 08:10:08;;;;;;;12.75;3.88;;;;;;;20.50;57.91;100815.97;6241691;23;20087;-81
2021/07/30 08:13:00;;;;;;;15.65;4.25;;;;;;;20.66;56.27;100812.88;6246106;23;20030;-80
2021/07/30 08:15:56;;;;;;;13.18;4.43;;;;;;;20.71;57.38;100811.00;6246215;23;20428;-82
2021/07/30 08:18:48;;;;;;;11.32;4.10;;;;;;;20.68;57.99;100806.63;6233075;23;20008;-84
2021/07/30 08:21:43;;;;;;;9.15;4.00;;;;;;;20.96;57.16;100805.00;6248290;23;20004;-85
2021/07/30 08:25:08;;;;;;;8.27;3.33;;;;;;;21.72;55.59;100801.09;6227826;23;20493;-84
2021/07/30 08:27:45;;;;;;;10.95;3.70;;;;;;;22.01;52.15;100769.81;6239793;23;20012;-86
2021/07/30 08:30:31;;;;;;;16.77;3.97;;;;;;;21.96;52.90;100777.13;6246691;23;20019;-83
2021/07/30 08:33:19;;;;;;;10.70;3.67;;;;;;;21.94;53.36;100784.34;6246992;23;20012;-82
2021/07/30 08:40:13;;;;;;;11.32;3.55;;;;;;;21.86;52.75;100771.19;6248418;23;20008;-85
2021/07/30 08:43:03;;;;;;;10.32;3.22;;;;;;;21.65;54.63;100781.66;6247460;23;20008;-85
2021/07/30 08:45:54;;;;;;;10.35;3.45;;;;;;;21.71;55.34;100785.94;6247270;23;20015;-82
2021/07/30 08:48:41;;;;;;;10.13;3.47;;;;;;;21.60;55.69;100785.41;6245030;23;20008;-82
2021/07/30 08:51:35;;;;;;;9.57;2.72;;;;;;;21.51;53.27;100765.09;6241530;23;20049;-85
2021/07/30 08:54:27;;;;;;;11.20;2.90;;;;;;;21.52;55.42;100772.19;6247636;23;20019;-81
2021/07/30 08:56:58;;;;;;;9.10;3.60;;;;;;;21.46;54.29;100762.56;6246537;23;20000;-84
2021/07/30 08:59:49;;;;;;;10.35;3.30;;;;;;;21.58;53.88;100757.78;6245641;23;20058;-83
2021/07/30 09:02:20;;;;;;;8.05;3.28;;;;;;;21.54;54.76;100752.53;6245530;23;20004;-83
2021/07/30 09:05:52;;;;;;;10.85;3.38;;;;;;;21.53;53.74;100741.88;6247923;23;20012;-85
2021/07/30 09:08:57;;;;;;;10.40;3.38;;;;;;;21.63;54.15;100747.81;6231933;23;20016;-85
2021/07/30 09:12:21;;;;;;;;;;;;;;;;;;;;;
2021/07/30 09:15:45;;;;;;;10.18;3.10;;;;;;;21.95;54.76;100743.22;6246471;23;20019;-80
2021/07/30 09:18:59;;;;;;;10.32;2.95;;;;;;;21.84;53.93;100728.38;6247856;23;20336;-82
2021/07/30 09:22:32;;;;;;;9.10;3.00;;;;;;;21.71;55.09;100737.72;6247949;23;20012;-85
2021/07/30 09:25:39;;;;;;;9.65;3.60;;;;;;;21.64;55.42;100739.72;6246029;23;20371;-82
2021/07/30 09:31:59;;;;;;;9.00;3.35;;;;;;;21.37;54.21;100733.38;6125344;23;20344;-80
2021/07/30 09:34:59;;;;;;;9.93;2.97;;;;;;;21.37;55.66;100736.06;6069056;23;20010;-82
2021/07/30 09:37:27;;;;;;;9.48;2.95;;;;;;;21.53;55.41;100726.66;6239090;23;20087;-84
2021/07/30 09:39:56;;;;;;;11.68;3.83;;;;;;;21.72;59.03;100752.88;6246664;23;20008;-83
2021/07/30 09:42:33;;;;;;;8.70;2.70;;;;;;;21.70;55.09;100730.63;6247265;23;20346;-82
2021/07/30 09:45:43;;;;;;;7.72;3.03;;;;;;;21.52;57.82;100738.25;6246776;23;20048;-83
2021/07/30 09:48:33;;;;;;;6.82;3.05;;;;;;;21.44;56.48;100729.59;6246076;23;20008;-83
2021/07/30 09:51:29;;;;;;;16.27;4.55;;;;;;;21.41;56.63;100732.38;6247344;23;20444;-84
2021/07/30 09:54:20;;;;;;;10.40;3.60;;;;;;;21.73;57.30;100728.72;6246463;23;20014;-82
2021/07/30 09:57:16;;;;;;;12.82;3.13;;;;;;;21.90;55.43;100729.97;6247933;23;20008;-86
2021/07/30 10:00:21;;;;;;;12.77;4.25;;;;;;;22.26;58.03;100726.13;6216701;23;20086;-82
2021/07/30 10:03:17;;;;;;;9.57;3.42;;;;;;;23.10;52.96;100689.16;6247432;23;20023;-86
2021/07/30 10:06:06;;;;;;;10.80;3.47;;;;;;;23.66;51.63;100685.25;6246342;23;20019;-79
2021/07/30 10:09:20;;;;;;;11.63;3.03;;;;;;;24.19;49.76;100678.59;6247255;23;20012;-80
2021/07/30 10:12:11;;;;;;;5.43;3.25;;;;;;;24.64;50.79;100676.66;6242921;23;20503;-82
2021/07/30 10:14:44;;;;;;;6.88;3.10;;;;;;;25.15;45.47;100659.03;6235207;23;20008;-83
2021/07/30 10:17:35;;;;;;;8.85;3.28;;;;;;;25.43;45.37;100660.44;6219881;23;20423;-83
2021/07/30 10:23:27;;;;;;;6.00;3.08;;;;;;;24.42;49.01;100659.63;6231686;23;20024;-82
2021/07/30 10:26:14;;;;;;;5.80;3.17;;;;;;;23.96;49.88;100655.38;6248153;23;20007;-85
2021/07/30 10:29:07;;;;;;;6.10;3.40;;;;;;;23.64;51.69;100674.53;6244317;23;20020;-86
2021/07/30 10:31:50;;;;;;;8.13;3.10;;;;;;;23.24;52.30;100678.81;6231319;23;20015;-83
2021/07/30 10:35:13;;;;;;;8.15;2.92;;;;;;;22.92;54.33;100688.06;6237774;23;20001;-80
2021/07/30 10:37:42;;;;;;;4.22;2.95;;;;;;;22.50;54.49;100681.53;6178938;23;20519;-91
2021/07/30 10:41:02;;;;;;;6.75;3.42;;;;;;;22.04;56.35;100700.03;6244969;23;20009;-84
2021/07/30 10:43:28;;;;;;;8.73;3.60;;;;;;;21.63;56.53;100692.44;6197898;23;20019;-81
2021/07/30 10:46:11;;;;;;;6.70;3.47;;;;;;;21.43;57.16;100698.38;6246013;23;20424;-81
2021/07/30 10:48:43;;;;;;;4.47;2.80;;;;;;;21.20;56.56;100697.31;6245493;23;20012;-84
2021/07/30 10:51:32;;;;;;;8.50;3.28;;;;;;;21.10;57.23;100700.28;6246072;23;20083;-83
2021/07/30 10:54:43;;;;;;;5.32;2.40;;;;;;;20.99;57.95;100692.59;6248074;23;20004;-82
2021/07/30 11:00:54;;;;;;;6.55;2.90;;;;;;;21.00;59.30;100699.69;6247026;23;20008;-83
2021/07/30 11:03:20;;;;;;;9.30;3.10;;;;;;;20.83;58.57;100703.72;6247789;23;20083;-83
2021/07/30 11:06:10;;;;;;;5.93;2.95;;;;;;;20.64;57.99;100686.41;6249907;23;20000;-78
2021/07/30 11:09:03;;;;;;;5.22;3.08;;;;;;;20.81;58.66;100707.34;6247856;23;20034;-84
2021/07/30 11:11:56;;;;;;;6.03;3.47;;;;;;;20.65;59.22;100698.88;6248674;23;20004;-86
2021/07/30 11:15:16;;;;;;;8.40;3.70;;;;;;;20.74;59.92;100695.06;6248057;23;20012;-79
2021/07/30 11:17:46;;;;;;;4.10;3.33;;;;;;;20.78;59.65;100694.97;6243522;23;20012;-82
2021/07/30 11:20:12;;;;;;;8.07;3.38;;;;;;;20.79;59.04;100691.34;6248074;23;20342;-85
2021/07/30 11:22:40;;;;;;;5.82;3.30;;;;;;;20.71;60.56;100694.25;6247695;23;20071;-80
2021/07/30 11:25:31;;;;;;;4.65;3.22;;;;;;;20.47;60.43;100698.44;6246412;23;20016;-82
2021/07/30 11:28:17;;;;;;;5.45;3.55;;;;;;;20.29;61.30;100696.25;6221583;23;20026;-84
2021/07/30 11:30:47;;;;;;;4.07;2.83;;;;;;;20.29;60.30;100697.13;6247694;23;20020;-81
2021/07/30 11:33:33;;;;;;;6.72;3.78;;;;;;;20.19;62.22;100711.66;6247885;23;20004;-81
2021/07/30 11:36:15;;;;;;;8.45;4.22;;;;;;;19.86;66.71;100723.13;6246505;23;20012;-81
2021/07/30 11:39:09;;;;;;;7.93;4.88;;;;;;;19.65;70.32;100728.94;6247251;23;20015;-79
2021/07/30 11:41:35;;;;;;;4.70;4.30;;;;;;;19.29;71.13;100743.06;6246109;23;20023;-83
2021/07/30 11:44:25;;;;;;;7.95;5.40;;;;;;;18.99;73.49;100740.13;6246837;23;20402;-86
2021/07/30 11:46:56;;;;;;;6.95;4.93;;;;;;;18.81;73.06;100732.44;6247302;23;20412;-82
2021/07/30 11:49:58;;;;;;;11.35;5.90;;;;;;;18.87;72.68;100730.53;6246331;23;20435;-84
2021/07/30 11:52:45;;;;;;;7.53;5.53;;;;;;;18.95;73.45;100735.75;6248212;23;20004;-84
2021/07/30 11:55:14;;;;;;;7.25;5.70;;;;;;;19.13;74.14;100729.16;6246933;23;20358;-85
2021/07/30 11:58:28;;;;;;;8.93;5.95;;;;;;;19.26;71.75;100724.47;6248339;23;20008;-82
2021/07/30 12:01:13;;;;;;;9.98;5.03;;;;;;;19.40;70.57;100717.94;6247879;23;20012;-86
2021/07/30 12:04:24;;;;;;;11.63;5.53;;;;;;;19.39;70.64;100709.06;6247643;23;20065;-83
2021/07/30 12:06:54;;;;;;;11.95;5.18;;;;;;;19.42;69.97;100705.44;6241913;23;20012;-83
2021/07/30 12:09:23;;;;;;;7.22;5.03;;;;;;;19.43;68.69;100704.53;6247661;23;20079;-82
2021/07/30 12:11:55;;;;;;;8.88;5.13;;;;;;;19.48;69.13;100702.63;6248097;23;20015;-85
2021/07/30 12:14:25;;;;;;;6.13;5.28;;;;;;;19.64;68.96;100703.16;6248357;23;20382;-88
2021/07/30 12:16:53;;;;;;;10.77;5.15;;;;;;;19.78;68.50;100701.03;6248662;23;20012;-81